createdAt,value
2019-02-19T00:00:51.639Z,2.19
2019-02-19T00:02:23.445Z,2.16
2019-02-19T00:03:54.754Z,2.11
2019-02-19T00:05:26.250Z,2.08
2019-02-19T00:06:58.158Z,2.08
2019-02-19T00:08:30.046Z,2.08
2019-02-19T00:10:01.933Z,2.09
2019-02-19T00:11:34.128Z,2.13
2019-02-19T00:13:06.064Z,2.12
2019-02-19T00:14:37.960Z,2.13
2019-02-19T00:16:09.847Z,2.11
2019-02-19T00:17:42.254Z,2.06
2019-02-19T00:19:14.175Z,2.01
2019-02-19T00:20:46.065Z,1.94
2019-02-19T00:22:17.341Z,1.88
2019-02-19T00:23:49.607Z,1.88
2019-02-19T00:25:20.979Z,1.85
2019-02-19T00:26:52.295Z,1.86
2019-02-19T00:28:23.578Z,1.85
2019-02-19T00:29:55.759Z,1.82
2019-02-19T00:31:27.065Z,1.81
2019-02-19T00:32:58.384Z,1.81
2019-02-19T00:34:29.695Z,1.81
2019-02-19T00:36:01.347Z,1.80
2019-02-19T00:37:32.653Z,1.81
2019-02-19T00:39:03.965Z,1.82
2019-02-19T00:40:35.300Z,1.81
2019-02-19T00:42:07.064Z,1.82
2019-02-19T00:43:38.389Z,1.90
2019-02-19T00:45:16.444Z,1.93
2019-02-19T00:46:43.226Z,1.90
2019-02-19T00:48:14.828Z,1.91
2019-02-19T00:49:46.158Z,1.92
2019-02-19T00:51:18.029Z,1.92
2019-02-19T00:52:49.335Z,1.89
2019-02-19T00:54:20.635Z,1.84
2019-02-19T00:55:51.981Z,1.82
2019-02-19T00:57:23.479Z,1.81
2019-02-19T00:58:54.764Z,1.78
2019-02-19T01:00:26.071Z,1.76
2019-02-19T01:01:57.445Z,1.78
2019-02-19T01:03:29.158Z,1.82
2019-02-19T01:05:00.497Z,1.89
2019-02-19T01:06:32.153Z,1.83
2019-02-19T01:08:03.466Z,1.85
2019-02-19T01:09:34.770Z,1.85
2019-02-19T01:11:06.118Z,1.81
2019-02-19T01:12:37.823Z,1.75
2019-02-19T01:14:09.123Z,1.72
2019-02-19T01:15:40.425Z,1.71
2019-02-19T01:17:11.749Z,1.71
2019-02-19T01:18:43.473Z,1.67
2019-02-19T01:20:14.806Z,1.62
2019-02-19T01:21:46.475Z,1.64
2019-02-19T01:23:18.394Z,1.72
2019-02-19T01:24:49.714Z,1.70
2019-02-19T01:26:21.030Z,1.64
2019-02-19T01:27:53.499Z,1.58
2019-02-19T01:29:24.851Z,1.54
2019-02-19T01:30:56.149Z,1.52
2019-02-19T01:32:27.443Z,1.47
2019-02-19T01:33:59.270Z,1.45
2019-02-19T01:35:30.589Z,1.42
2019-02-19T01:37:02.458Z,1.39
2019-02-19T01:38:34.393Z,1.39
2019-02-19T01:40:05.697Z,1.39
2019-02-19T01:41:37.593Z,1.39
2019-02-19T01:43:09.265Z,1.34
2019-02-19T01:44:40.618Z,1.31
2019-02-19T01:46:12.533Z,1.29
2019-02-19T01:47:43.816Z,1.26
2019-02-19T01:49:15.431Z,1.23
2019-02-19T01:50:46.726Z,1.22
2019-02-19T01:52:18.068Z,1.23
2019-02-19T01:53:49.450Z,1.24
2019-02-19T01:55:21.119Z,1.21
2019-02-19T01:56:52.417Z,1.21
2019-02-19T01:58:24.300Z,1.18
2019-02-19T01:59:56.200Z,1.20
2019-02-19T02:01:28.588Z,1.19
2019-02-19T02:02:59.889Z,1.15
2019-02-19T02:04:31.192Z,1.19
2019-02-19T02:06:03.083Z,1.28
2019-02-19T02:07:35.206Z,1.35
2019-02-19T02:09:06.506Z,1.37
2019-02-19T02:10:38.409Z,1.31
2019-02-19T02:12:09.721Z,1.24
2019-02-19T02:13:41.191Z,1.18
2019-02-19T02:15:12.517Z,1.14
2019-02-19T02:16:43.846Z,1.10
2019-02-19T02:18:15.167Z,1.04
2019-02-19T02:19:46.994Z,0.96
2019-02-19T02:21:18.325Z,0.95
2019-02-19T02:22:49.971Z,0.93
2019-02-19T02:24:21.265Z,0.94
2019-02-19T02:25:52.560Z,0.91
2019-02-19T02:27:23.891Z,0.96
2019-02-19T02:28:55.567Z,0.94
2019-02-19T02:30:26.890Z,0.94
2019-02-19T02:31:58.171Z,0.93
2019-02-19T02:33:29.548Z,0.90
2019-02-19T02:35:01.106Z,0.88
2019-02-19T02:36:32.405Z,0.86
2019-02-19T02:38:04.211Z,0.82
2019-02-19T02:39:35.558Z,0.79
2019-02-19T02:41:06.923Z,0.78
2019-02-19T02:42:38.240Z,0.81
2019-02-19T02:44:10.063Z,0.82
2019-02-19T02:45:41.370Z,0.82
2019-02-19T02:47:12.699Z,0.80
2019-02-19T02:48:43.999Z,0.79
2019-02-19T02:50:15.853Z,0.77
2019-02-19T02:51:47.136Z,0.77
2019-02-19T02:53:18.754Z,0.76
2019-02-19T02:54:50.034Z,0.77
2019-02-19T02:56:21.318Z,0.81
2019-02-19T02:57:52.677Z,0.78
2019-02-19T02:59:24.614Z,0.75
2019-02-19T03:00:55.936Z,0.67
2019-02-19T03:02:27.252Z,0.63
2019-02-19T03:03:58.577Z,0.61
2019-02-19T03:05:30.377Z,0.63
2019-02-19T03:07:01.686Z,0.56
2019-02-19T03:08:33.277Z,0.53
2019-02-19T03:10:04.568Z,0.34
2019-02-19T03:11:35.874Z,0.29
2019-02-19T03:13:07.196Z,0.08
2019-02-19T03:14:38.830Z,-0.32
2019-02-19T03:16:10.127Z,-0.24
2019-02-19T03:17:41.432Z,-0.12
2019-02-19T03:19:12.753Z,-0.31
2019-02-19T03:20:44.303Z,-0.49
2019-02-19T03:22:15.650Z,-0.49
2019-02-19T03:23:47.201Z,-0.54
2019-02-19T03:25:18.505Z,-0.54
2019-02-19T03:26:49.863Z,-0.47
2019-02-19T03:28:21.174Z,-0.43
2019-02-19T03:29:53.190Z,-0.34
2019-02-19T03:31:24.510Z,-0.24
2019-02-19T03:32:55.771Z,-0.73
2019-02-19T03:34:27.055Z,-0.08
2019-02-19T03:35:58.739Z,0.00
2019-02-19T03:37:30.068Z,0.05
2019-02-19T03:39:01.844Z,0.13
2019-02-19T03:40:33.198Z,0.19
2019-02-19T03:42:04.509Z,0.21
2019-02-19T03:43:35.800Z,0.21
2019-02-19T03:45:07.419Z,0.20
2019-02-19T03:46:38.738Z,0.18
2019-02-19T03:48:10.070Z,0.20
2019-02-19T03:49:41.339Z,0.21
2019-02-19T03:51:12.880Z,0.22
2019-02-19T03:52:44.226Z,0.23
2019-02-19T03:54:15.651Z,0.24
2019-02-19T03:55:46.977Z,0.24
2019-02-19T03:57:18.250Z,0.22
2019-02-19T03:58:49.601Z,0.20
2019-02-19T04:00:21.440Z,0.19
2019-02-19T04:01:52.760Z,0.18
2019-02-19T04:03:24.085Z,0.19
2019-02-19T04:04:55.421Z,0.18
2019-02-19T04:06:27.020Z,0.19
2019-02-19T04:07:58.308Z,0.20
2019-02-19T04:09:29.706Z,0.21
2019-02-19T04:11:01.039Z,0.25
2019-02-19T04:12:32.345Z,0.26
2019-02-19T04:14:03.657Z,0.25
2019-02-19T04:15:35.477Z,0.25
2019-02-19T04:17:06.859Z,0.26
2019-02-19T04:18:38.135Z,0.27
2019-02-19T04:20:09.457Z,0.29
2019-02-19T04:21:41.349Z,0.19
2019-02-19T04:23:12.698Z,0.12
2019-02-19T04:24:44.043Z,-0.02
2019-02-19T04:26:15.369Z,-0.20
2019-02-19T04:27:46.934Z,-0.31
2019-02-19T04:29:18.276Z,-0.42
2019-02-19T04:30:50.158Z,-0.58
2019-02-19T04:32:22.071Z,-0.61
2019-02-19T04:33:53.915Z,-0.63
2019-02-19T04:35:25.202Z,-0.72
2019-02-19T04:36:56.530Z,-0.79
2019-02-19T04:38:27.875Z,-0.84
2019-02-19T04:39:59.449Z,-0.88
2019-02-19T04:41:30.720Z,-0.91
2019-02-19T04:43:02.035Z,-1.02
2019-02-19T04:44:33.396Z,-1.03
2019-02-19T04:46:04.943Z,-1.04
2019-02-19T04:47:36.253Z,-1.08
2019-02-19T04:49:07.550Z,-1.19
2019-02-19T04:50:38.906Z,-1.14
2019-02-19T04:52:10.334Z,-1.25
2019-02-19T04:53:41.679Z,-1.21
2019-02-19T04:55:12.994Z,-1.19
2019-02-19T04:56:44.305Z,-1.21
2019-02-19T04:58:15.902Z,-1.25
2019-02-19T04:59:47.246Z,-1.21
2019-02-19T05:01:18.575Z,-1.16
2019-02-19T05:02:51.552Z,-1.14
2019-02-19T05:04:23.304Z,-1.25
2019-02-19T05:05:54.644Z,-1.29
2019-02-19T05:07:25.997Z,-1.38
2019-02-19T05:08:57.329Z,-1.36
2019-02-19T05:10:29.090Z,-1.32
2019-02-19T05:12:00.401Z,-1.28
2019-02-19T05:13:31.740Z,-1.29
2019-02-19T05:15:03.069Z,-1.32
2019-02-19T05:16:40.733Z,-1.25
2019-02-19T05:18:07.723Z,-1.14
2019-02-19T05:19:39.093Z,-1.11
2019-02-19T05:21:10.399Z,-1.06
2019-02-19T05:22:42.064Z,-1.07
2019-02-19T05:24:13.350Z,-1.07
2019-02-19T05:25:44.670Z,-1.13
2019-02-19T05:27:15.980Z,-1.14
2019-02-19T05:28:47.720Z,-1.25
2019-02-19T05:30:19.006Z,-1.28
2019-02-19T05:31:50.353Z,-1.24
2019-02-19T05:33:21.680Z,-1.27
2019-02-19T05:34:53.221Z,-1.26
2019-02-19T05:36:24.536Z,-1.28
2019-02-19T05:37:55.883Z,-1.22
2019-02-19T05:39:27.191Z,-1.21
2019-02-19T05:40:58.621Z,-1.22
2019-02-19T05:42:29.922Z,-1.13
2019-02-19T05:44:01.244Z,-1.03
2019-02-19T05:45:32.537Z,-0.92
2019-02-19T05:47:04.008Z,-0.85
2019-02-19T05:48:35.355Z,-0.79
2019-02-19T05:50:06.732Z,-0.79
2019-02-19T05:51:38.082Z,-0.81
2019-02-19T05:53:09.494Z,-0.74
2019-02-19T05:54:40.848Z,-0.67
2019-02-19T05:56:12.375Z,-0.58
2019-02-19T05:57:43.687Z,-0.45
2019-02-19T05:59:15.002Z,-0.35
2019-02-19T06:00:46.337Z,-0.23
2019-02-19T06:02:17.949Z,-0.17
2019-02-19T06:03:49.309Z,-0.10
2019-02-19T06:05:20.627Z,-0.05
2019-02-19T06:06:51.937Z,0.02
2019-02-19T06:08:23.650Z,0.03
2019-02-19T06:09:54.986Z,0.03
2019-02-19T06:11:26.702Z,0.00
2019-02-19T06:12:58.026Z,-0.03
2019-02-19T06:14:29.327Z,-0.04
2019-02-19T06:16:00.674Z,-0.05
2019-02-19T06:17:33.304Z,-0.02
2019-02-19T06:19:04.653Z,-0.03
2019-02-19T06:20:35.940Z,-0.01
2019-02-19T06:22:07.304Z,0.01
2019-02-19T06:23:39.362Z,0.06
2019-02-19T06:25:11.318Z,0.13
2019-02-19T06:26:42.859Z,0.19
2019-02-19T06:28:14.152Z,0.24
2019-02-19T06:29:46.078Z,0.33
2019-02-19T06:31:18.001Z,0.40
2019-02-19T06:32:49.695Z,0.35
2019-02-19T06:34:20.983Z,0.45
2019-02-19T06:35:52.275Z,0.49
2019-02-19T06:37:23.627Z,0.43
2019-02-19T06:38:55.086Z,0.34
2019-02-19T06:40:26.404Z,0.37
2019-02-19T06:41:57.958Z,0.39
2019-02-19T06:43:29.325Z,0.26
2019-02-19T06:45:00.675Z,0.20
2019-02-19T06:46:31.987Z,0.25
2019-02-19T06:48:03.621Z,0.36
2019-02-19T06:49:34.921Z,0.50
2019-02-19T06:51:06.255Z,0.52
2019-02-19T06:52:38.141Z,0.58
2019-02-19T06:54:09.797Z,0.61
2019-02-19T06:55:41.092Z,0.68
2019-02-19T06:57:12.904Z,0.75
2019-02-19T06:58:44.205Z,0.88
2019-02-19T07:00:15.517Z,0.94
2019-02-19T07:01:46.852Z,1.08
2019-02-19T07:03:18.470Z,0.99
2019-02-19T07:04:49.774Z,1.13
2019-02-19T07:06:21.659Z,1.28
2019-02-19T07:07:52.971Z,1.46
2019-02-19T07:09:24.661Z,1.63
2019-02-19T07:10:55.964Z,1.86
2019-02-19T07:12:27.418Z,2.06
2019-02-19T07:13:58.716Z,2.21
2019-02-19T07:15:30.067Z,2.22
2019-02-19T07:17:01.370Z,2.24
2019-02-19T07:18:32.936Z,2.26
2019-02-19T07:20:04.236Z,2.29
2019-02-19T07:21:36.176Z,2.34
2019-02-19T07:23:08.068Z,2.44
2019-02-19T07:24:40.208Z,2.51
2019-02-19T07:26:12.098Z,2.60
2019-02-19T07:27:44.434Z,2.80
2019-02-19T07:29:16.314Z,2.95
2019-02-19T07:30:47.611Z,3.05
2019-02-19T07:32:18.941Z,3.17
2019-02-19T07:33:51.232Z,3.35
2019-02-19T07:35:23.102Z,3.63
2019-02-19T07:36:55.026Z,3.77
2019-02-19T07:38:26.321Z,3.89
2019-02-19T07:39:57.930Z,3.80
2019-02-19T07:41:29.834Z,3.82
2019-02-19T07:43:01.887Z,4.06
2019-02-19T07:44:33.801Z,4.22
2019-02-19T07:46:05.776Z,4.32
2019-02-19T07:47:37.641Z,4.48
2019-02-19T07:49:09.777Z,4.77
2019-02-19T07:50:41.688Z,5.03
2019-02-19T07:52:13.573Z,5.27
2019-02-19T07:53:45.446Z,5.38
2019-02-19T07:55:17.706Z,5.63
2019-02-19T07:56:49.650Z,5.80
2019-02-19T07:58:21.826Z,5.85
2019-02-19T07:59:53.727Z,5.94
2019-02-19T08:01:25.619Z,6.11
2019-02-19T08:02:57.533Z,6.23
2019-02-19T08:04:29.858Z,6.06
2019-02-19T08:06:01.722Z,6.01
2019-02-19T08:07:33.629Z,6.18
2019-02-19T08:09:05.533Z,6.29
2019-02-19T08:10:37.773Z,6.33
2019-02-19T08:12:09.676Z,6.22
2019-02-19T08:13:50.844Z,6.25
2019-02-19T08:15:22.782Z,6.30
2019-02-19T08:16:54.729Z,6.27
2019-02-19T08:18:26.687Z,6.21
2019-02-19T08:19:58.938Z,6.33
2019-02-19T08:21:30.842Z,6.53
2019-02-19T08:23:02.783Z,6.81
2019-02-19T08:24:34.691Z,7.13
2019-02-19T08:26:07.085Z,7.35
2019-02-19T08:27:38.951Z,7.49
2019-02-19T08:29:13.680Z,7.65
2019-02-19T08:30:44.695Z,7.80
2019-02-19T08:32:16.590Z,7.92
2019-02-19T08:33:48.512Z,7.93
2019-02-19T08:35:20.815Z,7.89
2019-02-19T08:36:52.705Z,7.67
2019-02-19T08:38:24.570Z,7.77
2019-02-19T08:39:56.456Z,8.03
2019-02-19T08:41:28.754Z,8.23
2019-02-19T08:43:00.637Z,8.35
2019-02-19T08:44:32.879Z,8.39
2019-02-19T08:46:04.780Z,8.34
2019-02-19T08:47:42.728Z,8.51
2019-02-19T08:49:10.199Z,8.73
2019-02-19T08:50:42.434Z,8.86
2019-02-19T08:52:14.393Z,8.91
2019-02-19T08:53:46.268Z,8.87
2019-02-19T08:55:18.150Z,8.89
2019-02-19T08:56:50.347Z,9.08
2019-02-19T08:58:22.285Z,9.31
2019-02-19T08:59:54.484Z,9.58
2019-02-19T09:01:26.364Z,9.77
2019-02-19T09:02:58.272Z,9.96
2019-02-19T09:04:30.200Z,10.16
2019-02-19T09:06:02.504Z,10.27
2019-02-19T09:07:34.393Z,10.42
2019-02-19T09:09:06.316Z,10.45
2019-02-19T09:10:38.218Z,10.50
2019-02-19T09:12:11.562Z,10.46
2019-02-19T09:13:43.514Z,10.41
2019-02-19T09:15:15.773Z,10.37
2019-02-19T09:16:47.682Z,10.44
2019-02-19T09:18:19.618Z,10.57
2019-02-19T09:19:51.538Z,10.68
2019-02-19T09:21:24.001Z,10.72
2019-02-19T09:22:55.900Z,10.64
2019-02-19T09:24:27.824Z,10.58
2019-02-19T09:25:59.733Z,10.60
2019-02-19T09:27:32.033Z,10.55
2019-02-19T09:29:03.898Z,10.49
2019-02-19T09:30:36.055Z,10.52
2019-02-19T09:32:07.958Z,10.56
2019-02-19T09:33:39.911Z,10.60
2019-02-19T09:35:11.843Z,10.60
2019-02-19T09:36:44.079Z,10.64
2019-02-19T09:38:15.956Z,10.70
2019-02-19T09:39:47.860Z,10.76
2019-02-19T09:41:19.800Z,10.75
2019-02-19T09:42:51.982Z,10.75
2019-02-19T09:44:23.890Z,10.64
2019-02-19T09:45:56.210Z,10.56
2019-02-19T09:47:28.068Z,10.54
2019-02-19T09:48:59.989Z,10.47
2019-02-19T09:50:35.257Z,10.47
2019-02-19T09:52:07.532Z,10.40
2019-02-19T09:53:39.419Z,10.41
2019-02-19T09:55:11.327Z,10.41
2019-02-19T09:56:43.282Z,10.40
2019-02-19T09:58:15.452Z,10.37
2019-02-19T09:59:47.351Z,10.40
2019-02-19T10:01:22.271Z,10.44
2019-02-19T10:02:54.200Z,10.49
2019-02-19T10:04:26.069Z,10.48
2019-02-19T10:05:57.953Z,10.48
2019-02-19T10:07:30.169Z,10.49
2019-02-19T10:09:02.080Z,10.53
2019-02-19T10:10:33.973Z,10.58
2019-02-19T10:12:05.862Z,10.64
2019-02-19T10:13:38.071Z,10.65
2019-02-19T10:15:09.993Z,10.64
2019-02-19T10:16:42.291Z,10.63
2019-02-19T10:18:14.175Z,10.62
2019-02-19T10:19:46.046Z,10.66
2019-02-19T10:21:17.973Z,10.69
2019-02-19T10:22:50.118Z,10.74
2019-02-19T10:24:22.017Z,10.77
2019-02-19T10:25:53.964Z,10.80
2019-02-19T10:27:25.857Z,10.83
2019-02-19T10:28:58.042Z,10.87
2019-02-19T10:30:29.904Z,10.93
2019-02-19T10:32:02.183Z,10.99
2019-02-19T10:33:34.084Z,11.05
2019-02-19T10:35:05.986Z,11.16
2019-02-19T10:36:38.633Z,11.25
2019-02-19T10:38:11.101Z,11.26
2019-02-19T10:39:43.344Z,11.34
2019-02-19T10:41:15.216Z,11.39
2019-02-19T10:42:47.088Z,11.43
2019-02-19T10:44:19.241Z,11.48
2019-02-19T10:45:51.117Z,11.54
2019-02-19T10:47:23.366Z,11.64
2019-02-19T10:48:55.264Z,11.70
2019-02-19T10:50:27.240Z,11.78
2019-02-19T10:51:59.117Z,11.84
2019-02-19T10:53:31.487Z,11.87
2019-02-19T10:55:03.365Z,11.89
2019-02-19T10:56:35.342Z,11.95
2019-02-19T10:58:07.246Z,12.03
2019-02-19T10:59:39.397Z,12.13
2019-02-19T11:01:11.298Z,12.30
2019-02-19T11:02:43.820Z,12.38
2019-02-19T11:04:15.765Z,12.44
2019-02-19T11:05:47.629Z,12.47
2019-02-19T11:07:19.513Z,12.45
2019-02-19T11:08:51.758Z,12.47
2019-02-19T11:10:23.642Z,12.49
2019-02-19T11:11:55.557Z,12.52
2019-02-19T11:13:27.478Z,12.54
2019-02-19T11:14:59.695Z,12.59
2019-02-19T11:16:31.583Z,12.63
2019-02-19T11:18:03.841Z,12.67
2019-02-19T11:19:35.938Z,12.73
2019-02-19T11:21:07.879Z,12.81
2019-02-19T11:22:39.764Z,12.83
2019-02-19T11:24:12.126Z,12.87
2019-02-19T11:25:44.045Z,12.95
2019-02-19T11:27:16.732Z,13.03
2019-02-19T11:28:48.894Z,13.03
2019-02-19T11:30:21.283Z,13.15
2019-02-19T11:31:53.182Z,13.26
2019-02-19T11:33:25.409Z,13.31
2019-02-19T11:34:57.336Z,13.39
2019-02-19T11:36:29.243Z,13.43
2019-02-19T11:38:01.735Z,13.42
2019-02-19T11:39:34.042Z,13.55
2019-02-19T11:41:05.921Z,13.62
2019-02-19T11:42:37.847Z,13.67
2019-02-19T11:44:09.741Z,13.68
2019-02-19T11:45:41.982Z,13.66
2019-02-19T11:47:13.858Z,13.71
2019-02-19T11:48:46.089Z,13.86
2019-02-19T11:50:18.002Z,13.92
2019-02-19T11:51:49.897Z,13.90
2019-02-19T11:53:22.335Z,14.18
2019-02-19T11:54:54.731Z,14.32
2019-02-19T11:56:26.640Z,14.30
2019-02-19T11:57:58.534Z,14.26
2019-02-19T11:59:30.430Z,14.33
2019-02-19T12:01:02.953Z,14.33
2019-02-19T12:02:34.819Z,14.36
2019-02-19T12:04:06.980Z,14.33
2019-02-19T12:05:38.874Z,14.33
2019-02-19T12:07:10.783Z,14.38
2019-02-19T12:08:42.724Z,14.42
2019-02-19T12:10:15.003Z,14.56
2019-02-19T12:11:46.906Z,14.53
2019-02-19T12:13:18.857Z,14.52
2019-02-19T12:14:50.743Z,14.52
2019-02-19T12:16:24.951Z,14.52
2019-02-19T12:17:56.823Z,14.50
2019-02-19T12:19:28.802Z,14.53
2019-02-19T12:21:00.692Z,14.68
2019-02-19T12:22:32.634Z,14.87
2019-02-19T12:24:04.506Z,14.91
2019-02-19T12:25:36.614Z,15.17
2019-02-19T12:27:09.017Z,15.19
2019-02-19T12:28:40.957Z,15.31
2019-02-19T12:30:12.831Z,15.56
2019-02-19T12:31:45.183Z,15.65
2019-02-19T12:33:17.101Z,15.80
2019-02-19T12:34:49.273Z,15.80
2019-02-19T12:36:21.149Z,15.84
2019-02-19T12:37:53.033Z,15.91
2019-02-19T12:39:24.933Z,16.07
2019-02-19T12:40:57.190Z,16.12
2019-02-19T12:42:29.104Z,16.13
2019-02-19T12:44:01.010Z,16.14
2019-02-19T12:45:32.898Z,16.12
2019-02-19T12:47:05.103Z,16.14
2019-02-19T12:48:37.020Z,16.10
2019-02-19T12:50:08.912Z,16.05
2019-02-19T12:51:40.804Z,16.03
2019-02-19T12:53:13.035Z,16.16
2019-02-19T12:54:44.921Z,16.12
2019-02-19T12:56:16.842Z,16.30
2019-02-19T12:57:48.731Z,16.32
2019-02-19T12:59:20.947Z,16.41
2019-02-19T13:00:52.855Z,16.43
2019-02-19T13:02:24.736Z,16.54
2019-02-19T13:03:56.625Z,16.47
2019-02-19T13:05:28.814Z,16.32
2019-02-19T13:07:00.700Z,16.44
2019-02-19T13:08:32.634Z,16.62
2019-02-19T13:10:04.515Z,16.64
2019-02-19T13:11:36.709Z,16.59
2019-02-19T13:13:08.582Z,16.71
2019-02-19T13:14:40.504Z,16.62
2019-02-19T13:16:12.411Z,16.65
2019-02-19T13:17:44.636Z,16.68
2019-02-19T13:19:16.547Z,16.72
2019-02-19T13:20:48.949Z,16.75
2019-02-19T13:22:20.850Z,16.81
2019-02-19T13:23:52.778Z,16.82
2019-02-19T13:25:24.664Z,16.82
2019-02-19T13:26:56.821Z,16.85
2019-02-19T13:28:28.680Z,16.89
2019-02-19T13:30:00.614Z,16.83
2019-02-19T13:31:32.506Z,16.83
2019-02-19T13:33:04.612Z,16.84
2019-02-19T13:34:36.500Z,16.81
2019-02-19T13:36:08.609Z,16.85
2019-02-19T13:37:40.493Z,16.75
2019-02-19T13:39:12.443Z,16.68
2019-02-19T13:40:44.316Z,16.71
2019-02-19T13:42:16.550Z,16.80
2019-02-19T13:43:48.422Z,16.88
2019-02-19T13:45:20.323Z,16.79
2019-02-19T13:46:52.277Z,16.81
2019-02-19T13:48:24.465Z,16.90
2019-02-19T13:49:56.342Z,16.87
2019-02-19T13:51:28.478Z,16.86
2019-02-19T13:53:00.437Z,16.83
2019-02-19T13:54:32.318Z,16.77
2019-02-19T13:56:04.202Z,16.76
2019-02-19T13:57:36.388Z,16.78
2019-02-19T13:59:08.267Z,16.81
2019-02-19T14:00:40.135Z,16.73
2019-02-19T14:02:12.037Z,16.74
2019-02-19T14:03:44.227Z,16.66
2019-02-19T14:05:16.112Z,16.59
2019-02-19T14:06:48.239Z,16.58
2019-02-19T14:08:20.156Z,16.51
2019-02-19T14:09:52.091Z,16.60
2019-02-19T14:11:23.999Z,16.63
2019-02-19T14:12:56.159Z,16.59
2019-02-19T14:14:28.040Z,16.50
2019-02-19T14:15:59.989Z,16.48
2019-02-19T14:17:31.868Z,16.38
2019-02-19T14:19:04.193Z,16.33
2019-02-19T14:20:36.100Z,16.42
2019-02-19T14:22:08.509Z,16.49
2019-02-19T14:23:40.401Z,16.52
2019-02-19T14:25:12.354Z,16.50
2019-02-19T14:26:44.252Z,16.57
2019-02-19T14:28:16.419Z,16.55
2019-02-19T14:29:48.308Z,16.49
2019-02-19T14:31:20.217Z,16.46
2019-02-19T14:32:52.146Z,16.45
2019-02-19T14:34:24.370Z,16.46
2019-02-19T14:35:56.258Z,16.45
2019-02-19T14:37:28.475Z,16.47
2019-02-19T14:39:00.400Z,16.49
2019-02-19T14:40:32.255Z,16.38
2019-02-19T14:42:04.169Z,16.33
2019-02-19T14:43:36.307Z,16.34
2019-02-19T14:45:08.235Z,16.36
2019-02-19T14:46:40.113Z,16.28
2019-02-19T14:48:12.003Z,16.30
2019-02-19T14:49:47.294Z,16.33
2019-02-19T14:51:17.790Z,16.30
2019-02-19T14:52:49.893Z,16.33
2019-02-19T14:54:21.771Z,16.20
2019-02-19T14:55:53.696Z,16.22
2019-02-19T14:57:25.601Z,16.17
2019-02-19T14:58:57.893Z,16.19
2019-02-19T15:00:29.804Z,15.77
2019-02-19T15:02:01.712Z,16.17
2019-02-19T15:03:33.579Z,16.14
2019-02-19T15:05:05.824Z,16.11
2019-02-19T15:06:37.747Z,16.11
2019-02-19T15:08:09.619Z,16.05
2019-02-19T15:09:41.483Z,16.00
2019-02-19T15:11:13.521Z,15.97
2019-02-19T15:12:45.439Z,15.89
2019-02-19T15:14:17.314Z,15.84
2019-02-19T15:15:49.214Z,15.83
2019-02-19T15:17:21.455Z,15.76
2019-02-19T15:18:53.391Z,15.69
2019-02-19T15:20:25.298Z,15.66
2019-02-19T15:21:57.185Z,15.62
2019-02-19T15:23:29.163Z,15.61
2019-02-19T15:25:01.114Z,15.58
2019-02-19T15:26:33.041Z,15.54
2019-02-19T15:28:04.947Z,15.48
2019-02-19T15:29:36.971Z,15.40
2019-02-19T15:31:08.922Z,15.33
2019-02-19T15:32:40.811Z,15.27
2019-02-19T15:34:12.708Z,15.15
2019-02-19T15:35:44.834Z,15.12
2019-02-19T15:37:17.299Z,15.12
2019-02-19T15:38:49.192Z,15.06
2019-02-19T15:40:21.079Z,15.01
2019-02-19T15:41:53.233Z,14.98
2019-02-19T15:43:25.140Z,14.96
2019-02-19T15:44:57.073Z,14.93
2019-02-19T15:46:28.997Z,14.86
2019-02-19T15:48:01.086Z,14.82
2019-02-19T15:49:33.054Z,14.76
2019-02-19T15:51:04.938Z,14.69
2019-02-19T15:52:36.820Z,14.62
2019-02-19T15:54:08.909Z,14.57
2019-02-19T15:55:40.827Z,14.52
2019-02-19T15:57:12.698Z,14.49
2019-02-19T15:58:44.621Z,14.42
2019-02-19T16:00:16.772Z,14.35
2019-02-19T16:01:48.678Z,14.31
2019-02-19T16:03:20.583Z,14.26
2019-02-19T16:04:52.483Z,14.29
2019-02-19T16:06:24.682Z,14.25
2019-02-19T16:07:56.593Z,14.19
2019-02-19T16:09:28.517Z,14.13
2019-02-19T16:11:00.384Z,14.06
2019-02-19T16:12:32.460Z,14.01
2019-02-19T16:14:04.418Z,13.93
2019-02-19T16:15:36.293Z,13.86
2019-02-19T16:17:08.179Z,13.71
2019-02-19T16:18:40.220Z,13.70
2019-02-19T16:20:12.134Z,13.63
2019-02-19T16:21:44.011Z,13.58
2019-02-19T16:23:15.929Z,13.49
2019-02-19T16:24:47.909Z,13.44
2019-02-19T16:26:19.882Z,13.40
2019-02-19T16:27:51.788Z,13.32
2019-02-19T16:29:23.695Z,13.27
2019-02-19T16:30:55.735Z,13.21
2019-02-19T16:32:27.645Z,13.17
2019-02-19T16:33:59.554Z,13.09
2019-02-19T16:35:31.423Z,13.02
2019-02-19T16:37:03.450Z,12.95
2019-02-19T16:38:35.381Z,12.87
2019-02-19T16:40:07.815Z,12.82
2019-02-19T16:41:39.722Z,12.78
2019-02-19T16:43:11.608Z,12.75
2019-02-19T16:44:43.581Z,12.70
2019-02-19T16:46:15.743Z,12.65
2019-02-19T16:47:47.624Z,12.58
2019-02-19T16:49:19.533Z,12.50
2019-02-19T16:50:51.486Z,12.49
2019-02-19T16:52:23.592Z,12.41
2019-02-19T16:53:55.526Z,12.32
2019-02-19T16:55:27.500Z,12.24
2019-02-19T16:56:59.332Z,12.16
2019-02-19T16:58:31.415Z,12.12
2019-02-19T17:00:03.334Z,12.08
2019-02-19T17:01:35.200Z,12.05
2019-02-19T17:03:07.112Z,12.02
2019-02-19T17:04:39.249Z,12.00
2019-02-19T17:06:11.137Z,11.97
2019-02-19T17:07:43.049Z,11.92
2019-02-19T17:09:14.965Z,11.87
2019-02-19T17:10:47.698Z,11.83
2019-02-19T17:12:19.580Z,11.81
2019-02-19T17:13:58.084Z,11.90
2019-02-19T17:15:25.011Z,11.94
2019-02-19T17:16:57.196Z,11.93
2019-02-19T17:18:29.133Z,11.92
2019-02-19T17:20:01.014Z,11.89
2019-02-19T17:21:32.911Z,11.88
2019-02-19T17:23:04.957Z,11.85
2019-02-19T17:24:36.857Z,11.80
2019-02-19T17:26:08.738Z,11.76
2019-02-19T17:27:40.662Z,11.64
2019-02-19T17:29:12.709Z,11.53
2019-02-19T17:30:44.629Z,11.43
2019-02-19T17:32:16.543Z,11.34
2019-02-19T17:33:48.424Z,11.26
2019-02-19T17:35:20.536Z,11.20
2019-02-19T17:36:52.415Z,11.17
2019-02-19T17:38:24.341Z,11.13
2019-02-19T17:39:56.222Z,11.07
2019-02-19T17:41:28.705Z,11.04
2019-02-19T17:43:00.620Z,10.97
2019-02-19T17:44:32.509Z,10.94
2019-02-19T17:46:04.447Z,10.89
2019-02-19T17:47:36.711Z,10.85
2019-02-19T17:49:08.609Z,10.81
2019-02-19T17:50:40.520Z,10.75
2019-02-19T17:52:12.468Z,10.65
2019-02-19T17:53:44.746Z,10.61
2019-02-19T17:55:16.621Z,10.55
2019-02-19T17:56:49.663Z,10.43
2019-02-19T17:58:21.644Z,10.33
2019-02-19T17:59:53.561Z,10.32
2019-02-19T18:01:25.421Z,10.28
2019-02-19T18:02:57.716Z,10.28
2019-02-19T18:04:29.614Z,10.31
2019-02-19T18:06:01.491Z,10.26
2019-02-19T18:07:33.387Z,10.09
2019-02-19T18:09:05.563Z,10.03
2019-02-19T18:10:37.452Z,9.93
2019-02-19T18:12:09.394Z,9.89
2019-02-19T18:13:41.314Z,9.86
2019-02-19T18:15:13.471Z,9.78
2019-02-19T18:16:45.399Z,9.73
2019-02-19T18:18:17.723Z,9.70
2019-02-19T18:19:49.591Z,9.66
2019-02-19T18:21:21.792Z,9.58
2019-02-19T18:22:53.740Z,9.46
2019-02-19T18:24:25.650Z,9.44
2019-02-19T18:25:57.523Z,9.45
2019-02-19T18:27:29.833Z,9.46
2019-02-19T18:29:01.736Z,9.44
2019-02-19T18:30:33.679Z,9.38
2019-02-19T18:32:05.554Z,9.34
2019-02-19T18:33:37.623Z,9.37
2019-02-19T18:35:09.566Z,9.36
2019-02-19T18:36:41.495Z,9.34
2019-02-19T18:38:13.388Z,9.29
2019-02-19T18:39:45.464Z,9.25
2019-02-19T18:41:17.452Z,9.19
2019-02-19T18:42:49.367Z,9.14
2019-02-19T18:44:21.313Z,9.10
2019-02-19T18:45:53.495Z,9.07
2019-02-19T18:47:25.423Z,9.03
2019-02-19T18:48:57.326Z,8.98
2019-02-19T18:50:29.226Z,8.95
2019-02-19T18:52:01.311Z,8.90
2019-02-19T18:53:33.265Z,8.84
2019-02-19T18:55:05.168Z,8.80
2019-02-19T18:56:37.065Z,8.77
2019-02-19T18:58:09.327Z,8.72
2019-02-19T18:59:41.298Z,8.67
2019-02-19T19:01:13.198Z,8.66
2019-02-19T19:02:45.081Z,8.60
2019-02-19T19:04:17.251Z,8.59
2019-02-19T19:05:49.179Z,8.56
2019-02-19T19:07:21.100Z,8.51
2019-02-19T19:08:52.984Z,8.48
2019-02-19T19:10:24.955Z,8.50
2019-02-19T19:11:56.901Z,8.52
2019-02-19T19:13:28.208Z,8.55
2019-02-19T19:15:00.154Z,8.54
2019-02-19T19:16:32.429Z,8.50
2019-02-19T19:18:04.329Z,8.43
2019-02-19T19:19:36.234Z,8.36
2019-02-19T19:21:08.402Z,8.29
2019-02-19T19:22:40.729Z,8.27
2019-02-19T19:24:12.618Z,8.18
2019-02-19T19:25:44.546Z,8.19
2019-02-19T19:27:16.456Z,8.13
2019-02-19T19:28:48.546Z,8.04
2019-02-19T19:30:20.437Z,7.97
2019-02-19T19:31:52.380Z,7.89
2019-02-19T19:33:24.278Z,7.83
2019-02-19T19:34:56.360Z,7.84
2019-02-19T19:36:28.231Z,7.79
2019-02-19T19:38:00.193Z,7.71
2019-02-19T19:39:32.096Z,7.58
2019-02-19T19:41:04.096Z,7.61
2019-02-19T19:42:35.984Z,7.56
2019-02-19T19:44:07.940Z,7.52
2019-02-19T19:45:39.873Z,7.49
2019-02-19T19:47:11.841Z,7.46
2019-02-19T19:48:45.825Z,7.41
2019-02-19T19:50:17.378Z,7.37
2019-02-19T19:51:49.266Z,7.34
2019-02-19T19:53:21.338Z,7.33
2019-02-19T19:54:53.260Z,7.28
2019-02-19T19:56:27.524Z,7.25
2019-02-19T19:57:59.801Z,7.23
2019-02-19T19:59:31.699Z,7.20